Time;durP1;ratioP1;P1;durP2;ratioP2;P2;SDS_P1;SDS_P2;PMS_P1;PMS_P2;Temp;Humidity;BMP_temperature;BMP_pressure;BME280_temperature;BME280_humidity;BME280_pressure;Samples;Min_cycle;Max_cycle;Signal;HPM_P1;HPM_P2
2021/12/23 00:01:01;;;;;;;17.88;13.05;;;8.00;99.90;;;;;;5016688;28;20033;-79
2021/12/23 00:03:27;;;;;;;18.27;12.63;;;8.10;99.90;;;;;;5018216;28;20116;-80
2021/12/23 00:05:53;;;;;;;16.58;12.40;;;8.10;99.90;;;;;;5016669;28;20037;-79
2021/12/23 00:08:20;;;;;;;18.98;14.88;;;8.10;99.90;;;;;;5017891;28;20054;-79
2021/12/23 00:10:45;;;;;;;17.23;12.50;;;8.10;99.90;;;;;;5017936;28;20035;-80
2021/12/23 00:13:11;;;;;;;23.02;14.13;;;8.10;99.90;;;;;;5017971;28;20018;-79
2021/12/23 00:15:50;;;;;;;30.98;22.15;;;8.10;99.90;;;;;;5017618;28;20481;-80
2021/12/23 00:25:46;;;;;;;25.83;16.20;;;8.10;99.90;;;;;;5018322;28;20510;-80
2021/12/23 00:28:12;;;;;;;24.83;15.98;;;8.10;99.90;;;;;;5017670;28;20109;-80
2021/12/23 00:30:38;;;;;;;20.38;12.55;;;8.10;99.90;;;;;;5016116;28;20069;-80
2021/12/23 00:33:04;;;;;;;19.98;12.75;;;8.10;99.90;;;;;;5017672;28;20018;-79
2021/12/23 00:35:29;;;;;;;15.73;12.50;;;8.20;99.90;;;;;;5017664;28;20028;-80
2021/12/23 00:38:00;;;;;;;21.95;13.68;;;8.10;99.90;;;;;;5017701;28;20036;-81
2021/12/23 00:40:26;;;;;;;15.48;12.18;;;8.10;99.90;;;;;;5015665;28;20034;-79
2021/12/23 00:42:52;;;;;;;20.92;13.20;;;8.10;99.90;;;;;;5016226;28;20033;-80
2021/12/23 00:45:18;;;;;;;22.25;13.75;;;8.20;99.90;;;;;;5017883;28;20050;-79
2021/12/23 00:47:44;;;;;;;19.02;11.88;;;8.20;99.90;;;;;;5017418;28;20030;-80
2021/12/23 00:50:10;;;;;;;18.17;12.68;;;8.30;99.90;;;;;;5017609;28;20034;-80
2021/12/23 00:52:37;;;;;;;19.30;12.27;;;8.30;99.90;;;;;;5016132;28;20101;-79
2021/12/23 00:55:05;;;;;;;18.60;13.38;;;8.30;99.90;;;;;;5017610;28;20030;-78
2021/12/23 00:57:36;;;;;;;18.00;12.65;;;8.20;99.90;;;;;;5017229;28;20025;-79
2021/12/23 01:00:03;;;;;;;;;;;8.20;99.90;;;;;;5017632;28;20045;-80
2021/12/23 01:02:31;;;;;;;21.58;13.48;;;8.20;99.90;;;;;;5015922;28;19906;-80
2021/12/23 01:04:57;;;;;;;18.02;13.07;;;8.20;99.90;;;;;;5017344;28;20478;-79
2021/12/23 01:07:23;;;;;;;17.48;12.18;;;8.20;99.90;;;;;;5017301;28;20168;-80
2021/12/23 01:09:49;;;;;;;16.42;11.63;;;8.20;99.90;;;;;;5017370;28;20109;-80
2021/12/23 01:12:18;;;;;;;17.95;13.63;;;8.20;99.90;;;;;;5017097;28;20025;-79
2021/12/23 01:19:56;;;;;;;21.58;12.93;;;8.30;99.90;;;;;;5017351;28;20085;-79
2021/12/23 01:22:22;;;;;;;26.80;12.88;;;8.30;99.90;;;;;;5015966;28;20029;-79
2021/12/23 01:24:49;;;;;;;21.77;14.30;;;8.30;99.90;;;;;;5017104;28;20025;-80
2021/12/23 01:27:16;;;;;;;21.65;13.20;;;8.30;99.90;;;;;;5017264;28;20488;-80
2021/12/23 01:29:41;;;;;;;23.58;13.40;;;8.30;99.90;;;;;;5017001;28;20465;-80
2021/12/23 01:32:08;;;;;;;14.18;10.18;;;8.30;99.90;;;;;;5015540;28;20029;-80
2021/12/23 01:34:35;;;;;;;19.95;13.27;;;8.30;99.90;;;;;;5016835;28;20033;-80
2021/12/23 01:37:02;;;;;;;19.30;14.85;;;8.30;99.90;;;;;;5017312;28;20026;-80
2021/12/23 01:39:28;;;;;;;19.67;13.95;;;8.30;99.90;;;;;;5015635;28;20094;-80
2021/12/23 01:41:54;;;;;;;20.17;12.85;;;8.20;99.90;;;;;;5016899;28;20526;-80
2021/12/23 01:44:20;;;;;;;19.90;13.90;;;8.20;99.90;;;;;;5017101;28;20686;-80
2021/12/23 01:46:46;;;;;;;18.50;13.85;;;8.20;99.90;;;;;;5016851;28;20026;-79
2021/12/23 01:49:12;;;;;;;21.55;13.40;;;8.20;99.90;;;;;;5015497;28;20457;-80
2021/12/23 01:51:38;;;;;;;18.90;13.30;;;8.20;99.90;;;;;;5015696;28;20053;-80
2021/12/23 01:54:03;;;;;;;28.27;14.05;;;8.20;99.90;;;;;;5020439;28;20490;-80
2021/12/23 01:56:29;;;;;;;18.23;13.13;;;8.20;99.90;;;;;;5019139;28;20033;-80
2021/12/23 01:58:55;;;;;;;23.55;12.32;;;8.20;99.90;;;;;;5020501;28;20038;-80
2021/12/23 02:01:21;;;;;;;20.50;13.52;;;8.20;99.90;;;;;;5019005;28;20022;-80
2021/12/23 02:03:47;;;;;;;19.67;12.18;;;8.20;99.90;;;;;;5020342;28;20037;-79
2021/12/23 02:06:13;;;;;;;16.25;11.95;;;8.20;99.90;;;;;;5018835;28;20094;-80
2021/12/23 02:08:39;;;;;;;20.10;13.63;;;8.20;99.90;;;;;;5018990;28;20428;-80
2021/12/23 02:11:07;;;;;;;15.60;12.02;;;8.30;99.90;;;;;;5018769;28;20026;-80
2021/12/23 02:13:34;;;;;;;15.77;10.93;;;8.30;99.90;;;;;;5020048;28;20097;-80
2021/12/23 02:16:01;;;;;;;14.55;10.35;;;8.30;99.90;;;;;;5019912;28;20020;-80
2021/12/23 02:18:28;;;;;;;21.10;12.80;;;8.30;99.90;;;;;;5018662;28;20029;-80
2021/12/23 02:20:54;;;;;;;16.05;11.18;;;8.20;99.90;;;;;;5020075;28;20022;-79
2021/12/23 02:23:20;;;;;;;20.20;11.85;;;8.20;99.90;;;;;;5018730;28;20911;-79
2021/12/23 02:25:46;;;;;;;13.95;9.73;;;8.20;99.90;;;;;;5020015;28;20029;-80
2021/12/23 02:28:22;;;;;;;16.38;11.27;;;8.30;99.90;;;;;;5018404;28;20084;-79
2021/12/23 02:30:52;;;;;;;23.92;10.85;;;8.40;99.90;;;;;;5018335;28;20398;-80
2021/12/23 02:33:21;;;;;;;16.58;11.10;;;8.40;99.90;;;;;;5019836;28;20026;-80
2021/12/23 02:35:46;;;;;;;25.02;10.85;;;8.40;99.90;;;;;;5019838;28;20026;-80
2021/12/23 02:38:12;;;;;;;24.15;11.82;;;8.40;99.90;;;;;;5019824;28;20098;-80
2021/12/23 02:40:41;;;;;;;15.27;11.68;;;8.30;99.90;;;;;;5018786;28;20509;-79
2021/12/23 02:43:15;;;;;;;14.93;10.63;;;8.30;99.90;;;;;;5018315;28;20022;-81
2021/12/23 02:45:45;;;;;;;18.10;10.15;;;8.20;99.90;;;;;;5019541;28;20444;-80
2021/12/23 02:48:19;;;;;;;15.47;10.67;;;8.20;99.90;;;;;;5018637;28;20036;-80
2021/12/23 02:50:49;;;;;;;15.75;10.95;;;8.20;99.90;;;;;;5019367;28;20034;-79
2021/12/23 02:53:16;;;;;;;19.43;11.30;;;8.30;99.90;;;;;;5019817;28;20014;-79
2021/12/23 02:55:42;;;;;;;16.40;10.02;;;8.30;99.90;;;;;;5018021;28;20029;-80
2021/12/23 02:58:09;;;;;;;18.45;10.38;;;8.40;99.90;;;;;;5019343;28;20034;-80
2021/12/23 03:00:36;;;;;;;13.98;9.50;;;8.40;99.90;;;;;;5018923;28;20169;-81
2021/12/23 03:03:02;;;;;;;16.30;10.38;;;8.50;99.90;;;;;;5019112;28;20040;-81
2021/12/23 03:05:28;;;;;;;15.82;9.60;;;8.50;99.90;;;;;;5018423;28;20018;-80
2021/12/23 03:07:54;;;;;;;20.73;11.32;;;8.50;99.90;;;;;;5018960;28;20060;-80
2021/12/23 03:10:22;;;;;;;18.45;11.10;;;8.50;99.90;;;;;;5019006;28;20029;-80
2021/12/23 03:12:48;;;;;;;16.13;10.55;;;8.50;99.90;;;;;;5019104;28;20478;-82
2021/12/23 03:15:14;;;;;;;16.13;9.90;;;8.50;99.90;;;;;;5017453;28;20022;-79
2021/12/23 03:17:40;;;;;;;17.50;11.52;;;8.50;99.90;;;;;;5017873;28;20022;-80
2021/12/23 03:20:06;;;;;;;23.05;12.57;;;8.50;99.90;;;;;;5018956;28;20089;-80
2021/12/23 03:22:32;;;;;;;18.40;10.88;;;8.60;99.90;;;;;;5018930;28;20149;-79
2021/12/23 03:24:58;;;;;;;16.60;10.40;;;8.60;99.90;;;;;;5017721;28;20022;-80
2021/12/23 03:27:24;;;;;;;17.00;10.00;;;8.50;99.90;;;;;;5018784;28;20026;-80
2021/12/23 03:29:51;;;;;;;16.33;10.60;;;8.50;99.90;;;;;;5018711;28;20068;-80
2021/12/23 03:32:17;;;;;;;18.73;12.02;;;8.50;99.90;;;;;;5019031;28;20041;-80
2021/12/23 03:34:43;;;;;;;13.85;10.30;;;8.50;99.90;;;;;;5018475;28;20398;-80
2021/12/23 03:37:09;;;;;;;13.80;10.07;;;8.60;99.90;;;;;;5018788;28;20037;-79
2021/12/23 03:39:35;;;;;;;14.15;10.73;;;8.60;99.90;;;;;;5018578;28;20482;-79
2021/12/23 03:42:00;;;;;;;19.23;10.60;;;8.70;99.90;;;;;;5018520;28;20041;-80
2021/12/23 03:44:26;;;;;;;17.42;10.52;;;8.70;99.90;;;;;;5018481;28;20509;-80
2021/12/23 03:46:52;;;;;;;15.88;11.18;;;8.70;99.90;;;;;;5017417;28;20052;-79
2021/12/23 03:49:17;;;;;;;23.60;11.80;;;8.70;99.90;;;;;;5018470;28;20021;-80
2021/12/23 03:51:43;;;;;;;13.75;10.32;;;8.70;99.90;;;;;;5018395;28;20030;-81
2021/12/23 03:54:09;;;;;;;19.90;11.55;;;8.70;99.90;;;;;;5018290;28;20445;-79
2021/12/23 03:56:35;;;;;;;17.60;11.48;;;8.70;99.90;;;;;;5018219;28;20028;-80
2021/12/23 03:59:01;;;;;;;18.30;12.32;;;8.70;99.90;;;;;;5018449;28;20026;-80
2021/12/23 04:01:29;;;;;;;25.05;12.00;;;8.70;99.90;;;;;;5016807;28;20025;-80
2021/12/23 04:03:55;;;;;;;21.10;11.93;;;8.60;99.90;;;;;;5016768;28;20026;-80
2021/12/23 04:06:21;;;;;;;27.35;12.35;;;8.60;99.90;;;;;;5016647;28;20390;-80
2021/12/23 04:08:48;;;;;;;21.02;12.20;;;8.60;99.90;;;;;;5018316;28;20038;-80
2021/12/23 04:11:14;;;;;;;20.00;12.00;;;8.70;99.90;;;;;;5016794;28;20076;-81
2021/12/23 04:13:40;;;;;;;29.33;12.88;;;8.60;99.90;;;;;;5016515;28;20490;-80
2021/12/23 04:16:06;;;;;;;17.90;11.50;;;8.60;99.90;;;;;;5017729;28;20158;-80
2021/12/23 04:18:32;;;;;;;21.50;11.70;;;8.60;99.90;;;;;;5017879;28;20026;-81
2021/12/23 04:20:58;;;;;;;28.67;13.60;;;8.60;99.90;;;;;;5018039;28;20034;-81
2021/12/23 04:23:29;;;;;;;19.58;12.60;;;8.70;99.90;;;;;;5018084;28;20456;-81
2021/12/23 04:25:55;;;;;;;;;;;8.60;99.90;;;;;;5018405;28;20026;-80
2021/12/23 04:28:22;;;;;;;18.98;11.45;;;8.70;99.90;;;;;;5017668;28;19916;-81
2021/12/23 04:30:48;;;;;;;19.85;12.50;;;8.60;99.90;;;;;;5017534;28;20025;-80
2021/12/23 04:33:14;;;;;;;17.27;12.40;;;8.60;99.90;;;;;;5016532;28;20046;-81
2021/12/23 04:35:40;;;;;;;25.70;13.60;;;8.70;99.90;;;;;;5017717;28;20494;-80
2021/12/23 04:38:06;;;;;;;16.85;12.07;;;8.60;99.90;;;;;;5017756;28;20026;-81
2021/12/23 04:40:34;;;;;;;22.73;11.25;;;8.60;99.90;;;;;;5017869;28;20394;-81
2021/12/23 04:43:09;;;;;;;21.20;11.55;;;8.60;99.90;;;;;;5016018;28;20014;-81
2021/12/23 04:45:35;;;;;;;25.35;11.70;;;8.50;99.90;;;;;;5017426;28;20134;-81
2021/12/23 04:48:01;;;;;;;15.85;11.40;;;8.50;99.90;;;;;;5017406;28;20064;-80
2021/12/23 04:50:27;;;;;;;19.15;11.57;;;8.50;99.90;;;;;;5017464;28;20112;-81
2021/12/23 04:52:53;;;;;;;18.17;11.70;;;8.50;99.90;;;;;;5017336;28;20022;-80
2021/12/23 04:55:19;;;;;;;19.02;11.45;;;8.60;99.90;;;;;;5017451;28;20018;-80
2021/12/23 04:57:45;;;;;;;14.07;10.48;;;8.50;99.90;;;;;;5017253;28;20033;-81
2021/12/23 05:00:17;;;;;;;14.40;10.27;;;8.60;99.90;;;;;;5017207;28;20249;-81
2021/12/23 05:02:43;;;;;;;15.20;10.35;;;8.60;99.90;;;;;;5017412;28;20022;-79
2021/12/23 05:05:10;;;;;;;18.42;9.73;;;8.60;99.90;;;;;;5012855;28;20141;-79
2021/12/23 05:07:36;;;;;;;20.02;9.95;;;8.50;99.90;;;;;;5015963;28;20053;-79
2021/12/23 05:10:03;;;;;;;14.85;9.75;;;8.50;99.90;;;;;;5017219;28;20030;-80
2021/12/23 05:12:28;;;;;;;16.65;9.38;;;8.50;99.90;;;;;;5017349;28;20109;-80
2021/12/23 05:14:54;;;;;;;16.77;10.55;;;8.50;99.90;;;;;;5016933;28;20042;-79
2021/12/23 05:17:20;;;;;;;17.23;10.82;;;8.50;99.90;;;;;;5016008;28;20057;-79
2021/12/23 05:19:46;;;;;;;16.77;10.23;;;8.50;99.90;;;;;;5017147;28;20555;-79
2021/12/23 05:22:11;;;;;;;11.90;9.60;;;8.50;99.90;;;;;;5017684;28;20513;-79
2021/12/23 05:24:37;;;;;;;10.63;8.93;;;8.50;99.90;;;;;;5015810;28;20522;-80
2021/12/23 05:27:03;;;;;;;11.63;9.93;;;8.60;99.90;;;;;;5017795;28;20037;-79
2021/12/23 05:29:29;;;;;;;13.65;7.82;;;8.60;99.90;;;;;;5020975;28;20026;-81
2021/12/23 05:31:54;;;;;;;13.20;8.80;;;8.70;99.90;;;;;;5019634;28;20371;-80
2021/12/23 05:34:20;;;;;;;29.40;15.70;;;8.70;99.90;;;;;;5011424;28;20497;-81
2021/12/23 05:36:46;;;;;;;28.65;17.80;;;8.80;99.90;;;;;;5017965;28;20037;-81
2021/12/23 05:39:12;;;;;;;18.70;12.43;;;8.90;99.90;;;;;;5020338;28;20478;-80
2021/12/23 05:41:37;;;;;;;20.20;9.65;;;8.90;99.90;;;;;;5020619;28;20045;-81
2021/12/23 05:44:04;;;;;;;10.10;8.15;;;9.00;99.90;;;;;;5019722;28;20049;-80
2021/12/23 05:46:29;;;;;;;129.90;81.05;;;9.00;99.90;;;;;;5020052;28;20524;-80
2021/12/23 05:48:55;;;;;;;58.13;34.92;;;9.10;99.90;;;;;;5020107;28;20049;-79
2021/12/23 05:51:21;;;;;;;15.30;8.10;;;9.10;99.90;;;;;;5019851;28;20114;-80
2021/12/23 05:53:47;;;;;;;43.50;28.48;;;9.20;99.90;;;;;;5020219;28;20018;-80
2021/12/23 05:56:12;;;;;;;12.07;8.77;;;9.20;99.90;;;;;;5019902;28;20029;-81
2021/12/23 05:58:38;;;;;;;12.70;9.95;;;9.20;99.90;;;;;;5014518;28;20028;-81
2021/12/23 06:01:05;;;;;;;36.45;27.83;;;9.30;99.90;;;;;;5014915;28;20030;-80
2021/12/23 06:03:30;;;;;;;16.80;12.38;;;9.30;99.90;;;;;;5036356;28;20027;-80
2021/12/23 06:05:56;;;;;;;13.50;9.15;;;9.30;99.90;;;;;;5020499;28;20502;-80
2021/12/23 06:08:22;;;;;;;14.27;10.25;;;9.30;99.90;;;;;;5051709;28;20393;-81
2021/12/23 06:10:48;;;;;;;133.43;95.47;;;9.30;99.90;;;;;;5016970;28;20022;-80
2021/12/23 06:13:14;;;;;;;25.20;18.60;;;9.30;99.90;;;;;;5019450;28;20029;-80
2021/12/23 06:15:39;;;;;;;13.30;7.65;;;9.30;99.90;;;;;;5019342;28;20022;-80
2021/12/23 06:18:05;;;;;;;12.05;8.95;;;9.40;99.90;;;;;;5051694;28;20025;-80
2021/12/23 06:20:31;;;;;;;9.25;7.45;;;9.40;99.90;;;;;;5019433;28;20054;-79
2021/12/23 06:22:57;;;;;;;14.10;7.95;;;9.40;99.90;;;;;;5019988;28;20061;-80
2021/12/23 06:25:23;;;;;;;12.10;9.35;;;9.40;99.90;;;;;;5019784;28;20030;-81
2021/12/23 06:27:49;;;;;;;14.60;8.15;;;9.40;99.90;;;;;;5019804;28;20030;-80
2021/12/23 06:30:19;;;;;;;10.68;8.18;;;9.40;99.90;;;;;;5019300;28;20034;-80
2021/12/23 06:32:46;;;;;;;;;;;9.40;99.90;;;;;;5020383;28;20022;-80
2021/12/23 06:35:13;;;;;;;10.20;8.32;;;9.40;99.90;;;;;;5019515;28;19992;-80
2021/12/23 06:37:40;;;;;;;10.73;7.60;;;9.40;99.90;;;;;;5019972;28;20390;-80
2021/12/23 06:40:07;;;;;;;12.32;8.85;;;9.40;99.90;;;;;;5018567;28;20030;-80
2021/12/23 06:42:32;;;;;;;10.68;8.95;;;9.40;99.90;;;;;;5019501;28;20501;-80
2021/12/23 06:44:58;;;;;;;8.23;7.00;;;9.40;99.90;;;;;;5019593;28;20422;-80
2021/12/23 06:47:24;;;;;;;13.57;9.77;;;9.40;99.90;;;;;;5018367;28;20029;-80
2021/12/23 06:49:50;;;;;;;15.88;10.52;;;9.40;99.90;;;;;;5018474;28;20025;-80
2021/12/23 06:52:15;;;;;;;16.15;12.95;;;9.40;99.90;;;;;;5018255;28;20490;-81
2021/12/23 06:54:46;;;;;;;11.02;9.93;;;9.50;99.90;;;;;;5018267;28;20029;-80
2021/12/23 06:57:13;;;;;;;16.20;12.63;;;9.40;99.90;;;;;;5019556;28;20026;-80
2021/12/23 06:59:39;;;;;;;9.45;8.45;;;9.50;99.90;;;;;;5019044;28;20029;-81
2021/12/23 07:02:06;;;;;;;16.83;15.05;;;9.40;99.90;;;;;;5019239;28;20034;-80
2021/12/23 07:04:33;;;;;;;12.27;11.02;;;9.50;99.90;;;;;;5017897;28;20022;-80
2021/12/23 07:07:10;;;;;;;10.48;9.40;;;9.50;99.90;;;;;;5019001;28;20056;-81
2021/12/23 07:09:42;;;;;;;11.27;9.05;;;9.50;99.90;;;;;;5019229;28;20103;-80
2021/12/23 07:12:10;;;;;;;14.13;10.82;;;9.60;99.90;;;;;;5018872;28;20033;-80
2021/12/23 07:14:37;;;;;;;10.15;7.85;;;9.60;99.90;;;;;;5019300;28;20018;-82
2021/12/23 07:17:03;;;;;;;10.27;8.60;;;9.60;99.90;;;;;;5017442;28;20084;-80
2021/12/23 07:19:29;;;;;;;9.18;7.32;;;9.70;99.90;;;;;;5017713;28;20049;-80
2021/12/23 07:21:55;;;;;;;14.02;7.53;;;9.70;99.90;;;;;;5017533;28;20026;-81
2021/12/23 07:24:21;;;;;;;11.15;10.02;;;9.70;99.90;;;;;;5017588;28;20025;-80
2021/12/23 07:26:47;;;;;;;8.90;7.63;;;9.70;99.90;;;;;;5018641;28;20401;-81
2021/12/23 07:29:13;;;;;;;11.13;7.15;;;9.70;99.90;;;;;;5018889;28;20093;-80
2021/12/23 07:31:39;;;;;;;8.60;6.72;;;9.70;99.90;;;;;;5013167;28;20034;-81
2021/12/23 07:34:05;;;;;;;9.60;7.70;;;9.70;99.90;;;;;;5010214;28;20023;-80
2021/12/23 07:36:31;;;;;;;11.70;7.10;;;9.70;99.90;;;;;;5017233;28;20398;-80
2021/12/23 07:38:57;;;;;;;8.48;7.05;;;9.70;99.90;;;;;;5017391;28;20033;-80
2021/12/23 07:41:26;;;;;;;10.05;7.20;;;9.70;99.90;;;;;;5018346;28;20472;-80
2021/12/23 07:43:59;;;;;;;11.13;7.15;;;9.70;99.90;;;;;;5017185;28;20022;-80
2021/12/23 07:46:27;;;;;;;7.90;6.03;;;9.70;99.90;;;;;;5018288;28;20041;-80
2021/12/23 07:48:53;;;;;;;10.40;8.40;;;9.70;99.90;;;;;;5018441;28;20049;-80
2021/12/23 07:51:19;;;;;;;8.07;7.05;;;9.70;99.90;;;;;;5017985;28;20026;-79
2021/12/23 07:53:45;;;;;;;9.10;7.45;;;9.70;99.90;;;;;;5018596;28;20053;-81
2021/12/23 07:56:11;;;;;;;8.98;6.50;;;9.70;99.90;;;;;;5018129;28;20037;-80
2021/12/23 07:58:37;;;;;;;11.63;6.97;;;9.70;99.90;;;;;;5017015;28;20022;-80
2021/12/23 08:01:03;;;;;;;7.07;6.10;;;9.70;99.90;;;;;;5017964;28;20398;-79
2021/12/23 08:03:28;;;;;;;7.03;6.15;;;9.80;99.90;;;;;;5013508;28;20022;-79
2021/12/23 08:05:54;;;;;;;10.57;6.75;;;9.80;99.90;;;;;;5018168;28;20061;-79
2021/12/23 08:08:20;;;;;;;8.23;5.55;;;9.80;99.90;;;;;;5017863;28;20074;-80
2021/12/23 08:10:46;;;;;;;9.88;6.03;;;9.80;99.90;;;;;;5018138;28;20512;-79
2021/12/23 08:13:12;;;;;;;6.90;6.18;;;9.90;99.90;;;;;;5016536;28;20026;-81
2021/12/23 08:15:38;;;;;;;7.00;5.90;;;9.90;99.90;;;;;;5017913;28;20037;-80
2021/12/23 08:18:04;;;;;;;6.60;5.80;;;9.90;99.90;;;;;;5017959;28;20129;-80
2021/12/23 08:20:30;;;;;;;7.60;5.90;;;9.90;99.90;;;;;;5017936;28;20394;-80
2021/12/23 08:22:55;;;;;;;6.88;5.72;;;10.00;99.90;;;;;;5017882;28;20021;-82
2021/12/23 08:25:24;;;;;;;8.95;6.30;;;10.00;99.90;;;;;;5016891;28;20540;-81
2021/12/23 08:27:50;;;;;;;7.78;5.72;;;9.90;99.90;;;;;;5015867;28;20026;-77
2021/12/23 08:30:20;;;;;;;7.32;5.60;;;10.00;99.90;;;;;;5016178;28;20037;-77
2021/12/23 08:32:46;;;;;;;10.10;5.63;;;10.00;99.90;;;;;;5016874;28;20025;-77
2021/12/23 08:35:13;;;;;;;6.28;5.30;;;10.00;99.90;;;;;;5015607;28;20049;-77
2021/12/23 08:37:45;;;;;;;7.38;6.15;;;10.00;99.90;;;;;;5007660;28;20034;-77
2021/12/23 08:40:13;;;;;;;7.28;5.75;;;10.00;99.90;;;;;;5016361;28;20025;-78
2021/12/23 08:42:39;;;;;;;6.15;5.55;;;10.10;99.90;;;;;;5017732;28;20029;-77
2021/12/23 08:45:07;;;;;;;7.60;5.95;;;10.10;99.90;;;;;;5017377;28;20037;-77
2021/12/23 08:47:34;;;;;;;9.90;6.60;;;10.10;99.90;;;;;;5016070;28;20018;-77
2021/12/23 08:50:01;;;;;;;8.52;6.05;;;10.10;99.90;;;;;;5017544;28;20390;-77
2021/12/23 08:52:27;;;;;;;6.57;5.97;;;10.10;99.90;;;;;;5017510;28;20026;-77
2021/12/23 08:54:53;;;;;;;10.40;6.32;;;10.10;99.90;;;;;;5017350;28;20025;-77
2021/12/23 08:57:19;;;;;;;7.22;5.97;;;10.20;99.90;;;;;;5015367;28;20784;-77
2021/12/23 08:59:46;;;;;;;8.23;5.97;;;10.20;99.90;;;;;;5012867;28;20425;-77
2021/12/23 09:02:11;;;;;;;6.75;5.80;;;10.20;99.90;;;;;;5017647;28;20029;-77
2021/12/23 09:04:38;;;;;;;7.88;7.07;;;10.20;99.90;;;;;;5020170;28;20037;-77
2021/12/23 09:07:06;;;;;;;8.20;7.25;;;10.20;99.90;;;;;;5021093;28;20042;-77
2021/12/23 09:09:33;;;;;;;13.10;7.03;;;10.20;99.90;;;;;;5021387;28;20113;-77
2021/12/23 09:12:00;;;;;;;18.40;11.43;;;10.20;99.90;;;;;;5020905;28;20021;-77
2021/12/23 09:14:27;;;;;;;14.85;9.75;;;10.30;99.90;;;;;;5019831;28;20022;-77
2021/12/23 09:16:53;;;;;;;30.52;18.17;;;10.30;99.90;;;;;;5018431;28;20026;-77
2021/12/23 09:19:18;;;;;;;12.88;9.60;;;10.40;99.90;;;;;;5019962;28;20548;-77
2021/12/23 09:21:44;;;;;;;8.25;7.00;;;10.40;99.90;;;;;;5019832;28;20030;-77
2021/12/23 09:24:10;;;;;;;11.93;8.18;;;10.40;99.90;;;;;;5019841;28;20073;-77
2021/12/23 09:26:46;;;;;;;11.60;8.38;;;10.40;99.90;;;;;;5019550;28;20030;-77
2021/12/23 09:29:18;;;;;;;23.50;16.00;;;10.40;99.90;;;;;;5012509;28;20589;-77
2021/12/23 09:34:29;;;;;;;14.25;9.23;;;10.50;99.90;;;;;;5020234;28;20052;-77
2021/12/23 09:36:54;;;;;;;17.17;10.77;;;10.60;99.90;;;;;;5016669;28;20026;-77
2021/12/23 09:39:22;;;;;;;11.82;8.90;;;10.60;99.90;;;;;;5016253;28;20025;-79
2021/12/23 09:41:53;;;;;;;12.70;8.73;;;10.60;99.90;;;;;;5019140;28;20152;-77
2021/12/23 09:44:22;;;;;;;11.60;8.45;;;10.60;99.90;;;;;;5020584;28;20037;-77
2021/12/23 09:46:52;;;;;;;11.57;9.43;;;10.60;99.90;;;;;;5018730;28;20034;-78
2021/12/23 09:49:24;;;;;;;20.30;12.52;;;10.60;99.90;;;;;;5019862;28;20041;-78
2021/12/23 09:51:55;;;;;;;10.55;7.70;;;10.70;99.90;;;;;;5019895;28;20088;-78
2021/12/23 09:54:26;;;;;;;18.52;10.05;;;10.70;99.90;;;;;;5019818;28;20094;-78
2021/12/23 09:56:55;;;;;;;13.55;9.35;;;10.70;99.90;;;;;;5022920;28;20102;-78
2021/12/23 09:59:26;;;;;;;12.38;9.30;;;10.70;99.90;;;;;;5019180;28;20037;-78
2021/12/23 10:01:53;;;;;;;9.15;6.10;;;10.80;99.90;;;;;;5019208;28;20762;-77
2021/12/23 10:04:22;;;;;;;17.35;10.75;;;10.80;99.90;;;;;;5023668;28;20033;-78
2021/12/23 10:06:50;;;;;;;10.75;6.90;;;10.90;99.90;;;;;;5038317;28;20084;-77
2021/12/23 10:09:36;;;;;;;18.00;14.15;;;10.80;99.90;;;;;;5021019;28;20042;-78
2021/12/23 10:12:35;;;;;;;16.25;11.05;;;10.80;99.90;;;;;;5018253;28;20034;-77
2021/12/23 10:37:18;;;;;;;30.42;24.55;;;11.20;99.90;;;;;;5019440;28;20042;-76
2021/12/23 10:40:04;;;;;;;15.60;11.38;;;11.20;99.90;;;;;;5027552;28;20032;-75
2021/12/23 10:42:31;;;;;;;14.38;11.15;;;11.20;99.90;;;;;;5021913;28;20552;-75
2021/12/23 10:45:00;;;;;;;12.55;10.40;;;11.20;99.90;;;;;;5019327;28;20480;-72
2021/12/23 10:47:30;;;;;;;13.55;10.32;;;11.20;99.90;;;;;;5018760;28;20029;-76
2021/12/23 10:50:17;;;;;;;9.52;8.57;;;11.20;99.90;;;;;;5018120;28;20040;-76
2021/12/23 10:53:03;;;;;;;8.18;7.32;;;11.20;99.90;;;;;;5015517;28;20026;-76
2021/12/23 10:58:15;;;;;;;15.70;10.13;;;11.20;99.90;;;;;;5025019;28;20041;-77
2021/12/23 11:00:46;;;;;;;15.35;10.00;;;11.20;99.90;;;;;;5016418;28;20046;-76
2021/12/23 11:03:21;;;;;;;11.73;8.63;;;11.20;99.90;;;;;;5016759;28;20037;-76
2021/12/23 11:05:58;;;;;;;11.75;9.68;;;11.20;99.90;;;;;;5018834;28;20116;-76
2021/12/23 11:08:55;;;;;;;12.90;9.38;;;11.20;99.90;;;;;;5018346;28;20564;-75
2021/12/23 11:37:04;;;;;;;11.18;8.80;;;11.40;99.90;;;;;;5020775;28;20033;-77
2021/12/23 11:42:01;;;;;;;11.77;8.38;;;11.30;99.90;;;;;;5033470;28;20033;-77
2021/12/23 11:44:31;;;;;;;10.27;8.48;;;11.30;99.90;;;;;;5017753;28;20057;-77
2021/12/23 11:47:01;;;;;;;13.20;9.20;;;11.30;99.90;;;;;;5018009;28;20029;-77
2021/12/23 11:49:27;;;;;;;13.03;8.43;;;11.30;99.90;;;;;;5014296;28;20029;-77
2021/12/23 11:51:55;;;;;;;11.38;7.97;;;11.40;99.90;;;;;;5022574;28;20272;-78
2021/12/23 11:54:30;;;;;;;10.60;7.63;;;11.40;99.90;;;;;;5033646;28;20076;-78
2021/12/23 11:57:05;;;;;;;13.85;7.60;;;11.40;99.90;;;;;;5013987;28;20032;-77
2021/12/23 11:59:34;;;;;;;8.93;6.93;;;11.40;99.90;;;;;;5035808;28;20053;-75
2021/12/23 12:02:01;;;;;;;13.38;8.48;;;11.50;99.90;;;;;;5016860;28;20025;-79
2021/12/23 12:04:35;;;;;;;11.38;8.15;;;11.60;99.90;;;;;;5016803;28;20036;-76
2021/12/23 12:07:10;;;;;;;10.02;8.10;;;11.60;99.90;;;;;;5022776;28;20049;-76
2021/12/23 12:09:38;;;;;;;9.30;7.43;;;11.60;99.90;;;;;;5033801;28;20030;-76
2021/12/23 12:12:11;;;;;;;12.73;7.75;;;11.60;99.90;;;;;;5037600;28;20434;-75
2021/12/23 12:14:41;;;;;;;12.00;8.23;;;11.60;99.90;;;;;;5036306;28;20045;-77
2021/12/23 12:17:25;;;;;;;10.82;7.90;;;11.60;99.90;;;;;;5021219;28;20100;-77
2021/12/23 12:20:12;;;;;;;10.65;8.85;;;11.60;99.90;;;;;;5017576;28;20022;-76
2021/12/23 12:22:50;;;;;;;9.27;7.97;;;11.60;99.90;;;;;;5032911;28;20026;-75
2021/12/23 12:25:25;;;;;;;11.48;8.60;;;11.60;99.90;;;;;;5017140;28;20041;-76
2021/12/23 12:27:58;;;;;;;13.93;9.40;;;11.60;99.90;;;;;;5017226;28;20105;-76
2021/12/23 12:30:51;;;;;;;13.93;8.90;;;11.60;99.90;;;;;;5014294;28;20510;-76
2021/12/23 12:33:25;;;;;;;11.18;8.02;;;11.70;99.90;;;;;;5004958;28;20045;-76
2021/12/23 12:36:12;;;;;;;18.05;10.18;;;11.70;99.90;;;;;;5017035;28;20026;-76
2021/12/23 12:38:45;;;;;;;89.40;46.53;;;11.60;99.90;;;;;;5015359;28;20029;-76
2021/12/23 12:41:19;;;;;;;135.13;66.43;;;11.60;99.90;;;;;;5025637;28;20033;-76
2021/12/23 12:43:57;;;;;;;32.13;20.13;;;11.60;99.90;;;;;;5024570;28;20513;-76
2021/12/23 12:46:53;;;;;;;17.27;12.38;;;11.60;99.90;;;;;;5017106;28;20108;-76
2021/12/23 12:49:37;;;;;;;13.38;10.73;;;11.70;99.90;;;;;;5046735;28;20054;-76
2021/12/23 12:52:08;;;;;;;22.75;15.32;;;11.70;99.90;;;;;;5046972;28;20034;-76
2021/12/23 12:54:39;;;;;;;;;;;11.60;99.90;;;;;;5033138;28;20045;-76
2021/12/23 12:57:07;;;;;;;52.60;36.72;;;11.70;99.90;;;;;;5017772;28;20004;-76
2021/12/23 12:59:39;;;;;;;19.13;13.98;;;11.70;99.90;;;;;;5028848;28;20030;-76
2021/12/23 13:02:18;;;;;;;16.73;10.50;;;11.60;99.90;;;;;;5015624;28;20026;-75
2021/12/23 13:05:00;;;;;;;14.23;10.10;;;11.70;99.90;;;;;;5016810;28;20080;-78
2021/12/23 13:07:28;;;;;;;18.05;12.80;;;11.70;99.90;;;;;;5026297;28;20046;-76
2021/12/23 13:10:05;;;;;;;42.25;25.35;;;11.70;99.90;;;;;;5036846;28;20130;-75
2021/12/23 13:12:46;;;;;;;22.23;15.40;;;11.70;99.90;;;;;;5028941;28;20084;-75
2021/12/23 13:15:28;;;;;;;164.18;96.63;;;11.70;99.90;;;;;;5015687;28;20029;-76
2021/12/23 13:17:56;;;;;;;41.42;23.25;;;11.70;99.90;;;;;;5016929;28;20018;-76
2021/12/23 13:20:47;;;;;;;180.70;80.85;;;11.70;99.90;;;;;;5039229;28;20025;-75
2021/12/23 13:23:36;;;;;;;114.60;58.03;;;11.70;99.90;;;;;;5016992;28;20018;-76
2021/12/23 13:26:16;;;;;;;31.02;16.83;;;11.70;99.90;;;;;;5018946;28;20032;-76
2021/12/23 13:28:46;;;;;;;30.38;17.15;;;11.70;99.90;;;;;;5036821;28;20028;-76
2021/12/23 13:31:26;;;;;;;65.90;34.00;;;11.80;99.90;;;;;;5036251;28;20038;-76
2021/12/23 13:33:55;;;;;;;224.35;113.88;;;11.80;99.90;;;;;;5035253;28;20021;-76
2021/12/23 13:36:31;;;;;;;81.93;44.35;;;11.90;99.90;;;;;;5019522;28;20022;-76
2021/12/23 13:39:03;;;;;;;11.50;8.15;;;11.80;99.90;;;;;;5015558;28;20030;-76
2021/12/23 13:41:39;;;;;;;32.67;20.25;;;11.80;99.90;;;;;;5016775;28;20022;-76
2021/12/23 13:44:22;;;;;;;34.78;20.80;;;11.70;99.90;;;;;;5016183;28;20080;-76
2021/12/23 13:47:14;;;;;;;43.05;25.20;;;11.70;99.90;;;;;;5016531;28;20061;-76
2021/12/23 13:49:46;;;;;;;18.38;10.38;;;11.70;99.90;;;;;;5018554;28;20018;-74
2021/12/23 13:52:27;;;;;;;17.95;9.77;;;11.80;99.90;;;;;;5019215;28;20062;-76
2021/12/23 13:54:55;;;;;;;11.65;9.00;;;11.80;99.90;;;;;;5020414;28;20025;-75
2021/12/23 13:57:23;;;;;;;43.83;27.73;;;11.70;99.90;;;;;;5036408;28;20030;-76